createdAt,value
2017-12-06T00:01:40.578Z,99892.90
2017-12-06T00:04:08.092Z,99893.92
2017-12-06T00:06:35.594Z,99893.09
2017-12-06T00:09:03.091Z,99895.25
2017-12-06T00:11:30.609Z,99890.20
2017-12-06T00:14:03.710Z,99892.19
2017-12-06T00:16:31.222Z,99895.27
2017-12-06T00:18:58.729Z,99888.29
2017-12-06T00:21:26.220Z,99889.73
2017-12-06T00:23:53.712Z,99885.08
2017-12-06T00:26:21.330Z,99889.31
2017-12-06T00:28:48.821Z,99893.42
2017-12-06T00:31:16.306Z,99892.17
2017-12-06T00:33:43.806Z,99893.00
2017-12-06T00:36:11.288Z,99891.27
2017-12-06T00:38:38.777Z,99897.44
2017-12-06T00:41:06.269Z,99889.63
2017-12-06T00:43:33.752Z,99899.30
2017-12-06T00:46:01.306Z,99899.59
2017-12-06T00:48:28.788Z,99901.22
2017-12-06T00:50:56.291Z,99902.27
2017-12-06T00:53:23.831Z,99905.14
2017-12-06T00:55:51.328Z,99899.29
2017-12-06T00:58:18.838Z,99900.20
2017-12-06T01:00:46.337Z,99903.79
2017-12-06T01:03:13.833Z,99896.52
2017-12-06T01:05:41.351Z,99904.33
2017-12-06T01:08:08.870Z,99912.41
2017-12-06T01:10:36.393Z,99907.08
2017-12-06T01:13:03.881Z,99918.80
2017-12-06T01:15:31.373Z,99911.37
2017-12-06T01:17:58.887Z,99909.30
2017-12-06T01:20:26.390Z,99905.22
2017-12-06T01:22:54.084Z,99905.97
2017-12-06T01:25:21.593Z,99904.94
2017-12-06T01:27:49.092Z,99901.83
2017-12-06T01:30:16.626Z,99911.46
2017-12-06T01:32:44.125Z,99907.97
2017-12-06T01:35:11.617Z,99913.13
2017-12-06T01:37:39.167Z,99906.64
2017-12-06T01:40:06.672Z,99909.56
2017-12-06T01:42:34.179Z,99904.61
2017-12-06T01:45:01.678Z,99899.38
2017-12-06T01:47:29.192Z,99900.46
2017-12-06T01:49:56.693Z,99895.20
2017-12-06T01:52:24.191Z,99893.38
2017-12-06T01:54:51.694Z,99886.91
2017-12-06T01:57:19.224Z,99886.52
2017-12-06T01:59:46.715Z,99888.44
2017-12-06T02:02:14.224Z,99894.83
2017-12-06T02:04:41.738Z,99889.06
2017-12-06T02:07:09.238Z,99888.38
2017-12-06T02:09:36.737Z,99881.27
2017-12-06T02:12:04.251Z,99882.16
2017-12-06T02:14:31.745Z,99883.38
2017-12-06T02:16:59.247Z,99885.34
2017-12-06T02:19:26.736Z,99887.56
2017-12-06T02:21:54.230Z,99877.28
2017-12-06T02:24:21.724Z,99875.65
2017-12-06T02:26:49.242Z,99871.05
2017-12-06T02:29:16.742Z,99868.12
2017-12-06T02:31:44.243Z,99874.80
2017-12-06T02:34:11.742Z,99878.49
2017-12-06T02:36:39.259Z,99866.48
2017-12-06T02:39:06.756Z,99866.60
2017-12-06T02:41:46.120Z,99864.83
2017-12-06T02:44:25.507Z,99859.89
2017-12-06T02:46:53.006Z,99870.73
2017-12-06T02:49:20.508Z,99869.20
2017-12-06T02:51:48.023Z,99862.73
2017-12-06T02:54:15.543Z,99868.27
2017-12-06T02:56:43.053Z,99857.80
2017-12-06T02:59:10.580Z,99857.27
2017-12-06T03:01:38.112Z,99854.72
2017-12-06T03:04:05.611Z,99851.46
2017-12-06T03:06:33.113Z,99849.25
2017-12-06T03:09:00.597Z,99852.83
2017-12-06T03:11:28.096Z,99854.53
2017-12-06T03:13:55.586Z,99854.06
2017-12-06T03:16:23.563Z,99852.73
2017-12-06T03:18:51.056Z,99860.69
2017-12-06T03:21:18.570Z,99864.62
2017-12-06T03:23:46.077Z,99851.54
2017-12-06T03:26:13.606Z,99854.95
2017-12-06T03:28:41.095Z,99847.92
2017-12-06T03:31:08.614Z,99849.70
2017-12-06T03:33:36.136Z,99847.41
2017-12-06T03:36:03.633Z,99842.98
2017-12-06T03:38:31.167Z,99837.67
2017-12-06T03:40:58.665Z,99848.15
2017-12-06T03:43:26.165Z,99847.11
2017-12-06T03:45:53.661Z,99845.12
2017-12-06T03:48:21.150Z,99845.52
2017-12-06T03:50:48.642Z,99846.86
2017-12-06T03:53:16.158Z,99841.22
2017-12-06T03:55:43.649Z,99842.20
2017-12-06T03:58:11.166Z,99843.73
2017-12-06T04:00:38.659Z,99848.83
2017-12-06T04:03:06.140Z,99840.81
2017-12-06T04:05:33.620Z,99838.06
2017-12-06T04:08:01.112Z,99847.65
2017-12-06T04:10:28.614Z,99851.25
2017-12-06T04:12:56.100Z,99853.24
2017-12-06T04:15:23.591Z,99839.86
2017-12-06T04:17:51.173Z,99836.95
2017-12-06T04:20:18.672Z,99840.06
2017-12-06T04:22:46.168Z,99832.78
2017-12-06T04:25:13.653Z,99833.39
2017-12-06T04:27:41.141Z,99827.94
2017-12-06T04:30:08.656Z,99825.30
2017-12-06T04:32:36.159Z,99831.22
2017-12-06T04:35:03.654Z,99830.63
2017-12-06T04:37:31.149Z,99830.20
2017-12-06T04:39:58.648Z,99830.88
2017-12-06T04:42:26.137Z,99826.29
2017-12-06T04:44:53.617Z,99827.83
2017-12-06T04:47:21.122Z,99827.13
2017-12-06T04:49:48.625Z,99827.12
2017-12-06T04:52:16.139Z,99828.45
2017-12-06T04:54:43.642Z,99830.34
2017-12-06T04:57:11.163Z,99822.94
2017-12-06T04:59:38.665Z,99825.48
2017-12-06T05:02:06.159Z,99826.58
2017-12-06T05:04:33.646Z,99821.25
2017-12-06T05:07:01.124Z,99823.20
2017-12-06T05:09:28.623Z,99810.46
2017-12-06T05:11:56.108Z,99808.83
2017-12-06T05:14:23.609Z,99814.45
2017-12-06T05:16:51.135Z,99818.45
2017-12-06T05:19:18.640Z,99814.56
2017-12-06T05:21:46.146Z,99810.24
2017-12-06T05:24:13.643Z,99812.42
2017-12-06T05:26:41.135Z,99814.06
2017-12-06T05:29:08.617Z,99809.64
2017-12-06T05:31:36.109Z,99807.77
2017-12-06T05:34:03.611Z,99802.27
2017-12-06T05:36:31.116Z,99804.98
2017-12-06T05:38:58.622Z,99791.42
2017-12-06T05:41:26.110Z,99798.94
2017-12-06T05:43:53.616Z,99804.55
2017-12-06T05:46:21.112Z,99806.14
2017-12-06T05:48:48.602Z,99803.55
2017-12-06T05:51:16.087Z,99805.25
2017-12-06T05:53:43.587Z,99814.53
2017-12-06T05:56:11.086Z,99812.26
2017-12-06T05:58:38.574Z,99811.02
2017-12-06T06:01:06.100Z,99806.08
2017-12-06T06:03:33.596Z,99814.39
2017-12-06T06:06:01.103Z,99806.29
2017-12-06T06:08:28.621Z,99807.50
2017-12-06T06:10:56.100Z,99802.27
2017-12-06T06:13:23.601Z,99808.86
2017-12-06T06:15:51.158Z,99804.85
2017-12-06T06:18:18.661Z,99809.56
2017-12-06T06:20:46.185Z,99812.89
2017-12-06T06:23:13.705Z,99815.92
2017-12-06T06:25:41.228Z,99811.31
2017-12-06T06:28:08.729Z,99814.69
2017-12-06T06:30:36.254Z,99811.80
2017-12-06T06:33:03.748Z,99818.79
2017-12-06T06:35:31.252Z,99813.94
2017-12-06T06:37:58.742Z,99821.15
2017-12-06T06:40:26.231Z,99823.63
2017-12-06T06:42:53.712Z,99819.89
2017-12-06T06:45:21.224Z,99819.36
2017-12-06T06:47:48.720Z,99822.06
2017-12-06T06:50:16.233Z,99820.47
2017-12-06T06:52:43.745Z,99824.14
2017-12-06T06:55:11.285Z,99820.75
2017-12-06T06:57:38.932Z,99815.42
2017-12-06T07:00:06.433Z,99821.62
2017-12-06T07:02:33.936Z,99819.52
2017-12-06T07:05:01.449Z,99812.86
2017-12-06T07:07:28.948Z,99809.14
2017-12-06T07:09:56.435Z,99802.95
2017-12-06T07:12:23.925Z,99808.30
2017-12-06T07:14:51.446Z,99807.08
2017-12-06T07:17:18.932Z,99807.95
2017-12-06T07:19:49.260Z,99805.33
2017-12-06T07:22:16.759Z,99816.77
2017-12-06T07:24:44.259Z,99815.07
2017-12-06T07:27:11.748Z,99808.68
2017-12-06T07:29:39.260Z,99809.13
2017-12-06T07:32:06.812Z,99799.81
2017-12-06T07:34:34.300Z,99798.98
2017-12-06T07:37:01.811Z,99808.59
2017-12-06T07:39:29.302Z,99812.67
2017-12-06T07:41:56.821Z,99807.95
2017-12-06T07:44:24.313Z,99808.25
2017-12-06T07:46:51.826Z,99812.23
2017-12-06T07:49:19.336Z,99813.09
2017-12-06T07:51:46.893Z,99811.49
2017-12-06T07:54:14.405Z,99805.49
2017-12-06T07:56:41.917Z,99806.02
2017-12-06T07:59:09.439Z,99800.38
2017-12-06T08:01:36.944Z,99809.38
2017-12-06T08:04:04.439Z,99799.59
2017-12-06T08:06:31.948Z,99804.69
2017-12-06T08:08:59.468Z,99809.58
2017-12-06T08:11:26.957Z,99798.85
2017-12-06T08:13:54.460Z,99809.77
2017-12-06T08:16:21.988Z,99807.58
2017-12-06T08:18:49.477Z,99812.45
2017-12-06T08:21:16.968Z,99810.39
2017-12-06T08:23:44.471Z,99803.41
2017-12-06T08:26:11.969Z,99809.50
2017-12-06T08:28:39.464Z,99804.72
2017-12-06T08:31:07.003Z,99803.37
2017-12-06T08:33:34.493Z,99810.07
2017-12-06T08:36:01.977Z,99801.05
2017-12-06T08:38:29.475Z,99800.38
2017-12-06T08:40:56.969Z,99797.00
2017-12-06T08:43:24.476Z,99800.32
2017-12-06T08:45:51.981Z,99803.02
2017-12-06T08:48:19.476Z,99799.21
2017-12-06T08:50:46.965Z,99802.26
2017-12-06T08:53:14.465Z,99804.52
2017-12-06T08:55:41.962Z,99800.18
2017-12-06T08:58:09.456Z,99801.11
2017-12-06T09:00:36.938Z,99798.34
2017-12-06T09:03:04.485Z,99805.36
2017-12-06T09:05:31.988Z,99798.47
2017-12-06T09:07:59.485Z,99798.72
2017-12-06T09:10:27.009Z,99793.25
2017-12-06T09:12:54.547Z,99802.66
2017-12-06T09:15:22.043Z,99803.20
2017-12-06T09:17:49.571Z,99802.63
2017-12-06T09:20:17.055Z,99802.25
2017-12-06T09:22:44.550Z,99804.14
2017-12-06T09:25:12.040Z,99801.80
2017-12-06T09:27:39.567Z,99801.56
2017-12-06T09:30:07.057Z,99802.79
2017-12-06T09:32:34.540Z,99806.25
2017-12-06T09:35:02.084Z,99793.52
2017-12-06T09:37:29.599Z,99800.49
2017-12-06T09:39:57.085Z,99789.73
2017-12-06T09:42:24.570Z,99789.31
2017-12-06T09:44:52.049Z,99795.27
2017-12-06T09:47:19.552Z,99791.80
2017-12-06T09:49:47.037Z,99792.60
2017-12-06T09:52:14.516Z,99791.98
2017-12-06T09:54:42.009Z,99783.38
2017-12-06T09:57:09.501Z,99788.94
2017-12-06T09:59:36.989Z,99787.40
2017-12-06T10:02:04.473Z,99788.28
2017-12-06T10:04:31.976Z,99787.52
2017-12-06T10:06:59.506Z,99784.56
2017-12-06T10:09:27.014Z,99782.00
2017-12-06T10:11:54.499Z,99784.17
2017-12-06T10:14:21.978Z,99786.80
2017-12-06T10:16:49.481Z,99787.94
2017-12-06T10:19:17.050Z,99784.77
2017-12-06T10:21:44.551Z,99790.52
2017-12-06T10:24:12.156Z,99794.16
2017-12-06T10:26:39.669Z,99792.98
2017-12-06T10:29:07.170Z,99788.17
2017-12-06T10:31:34.673Z,99780.90
2017-12-06T10:34:02.180Z,99775.97
2017-12-06T10:36:29.674Z,99775.17
2017-12-06T10:38:57.160Z,99778.86
2017-12-06T10:41:24.659Z,99774.57
2017-12-06T10:43:52.161Z,99771.03
2017-12-06T10:46:19.641Z,99768.17
2017-12-06T10:48:47.132Z,99768.92
2017-12-06T10:51:14.620Z,99764.23
2017-12-06T10:53:42.152Z,99758.47
2017-12-06T10:56:09.634Z,99760.88
2017-12-06T10:58:37.112Z,99756.77
2017-12-06T11:01:04.613Z,99756.52
2017-12-06T11:03:32.105Z,99752.91
2017-12-06T11:05:59.634Z,99749.79
2017-12-06T11:08:27.172Z,99747.11
2017-12-06T11:10:54.776Z,99743.13
2017-12-06T11:13:22.252Z,99739.31
2017-12-06T11:15:49.793Z,99736.66
2017-12-06T11:18:17.286Z,99732.94
2017-12-06T11:20:44.776Z,99737.05
2017-12-06T11:23:12.269Z,99730.72
2017-12-06T11:25:39.786Z,99735.13
2017-12-06T11:28:07.274Z,99736.38
2017-12-06T11:30:34.775Z,99735.56
2017-12-06T11:33:02.275Z,99736.05
2017-12-06T11:35:29.786Z,99724.55
2017-12-06T11:37:57.323Z,99727.00
2017-12-06T11:40:24.822Z,99723.16
2017-12-06T11:42:52.312Z,99724.97
2017-12-06T11:45:19.810Z,99725.52
2017-12-06T11:47:47.297Z,99716.84
2017-12-06T11:50:14.784Z,99719.39
2017-12-06T11:52:42.281Z,99709.73
2017-12-06T11:55:09.786Z,99712.43
2017-12-06T11:57:37.272Z,99713.84
2017-12-06T12:00:04.757Z,99710.66
2017-12-06T12:02:32.261Z,99714.68
2017-12-06T12:04:59.824Z,99707.20
2017-12-06T12:07:27.389Z,99695.87
2017-12-06T12:09:54.878Z,99694.72
2017-12-06T12:12:22.393Z,99694.11
2017-12-06T12:14:49.934Z,99695.80
2017-12-06T12:17:17.444Z,99692.45
2017-12-06T12:19:44.940Z,99694.70
2017-12-06T12:22:12.428Z,99694.36
2017-12-06T12:24:39.908Z,99685.67
2017-12-06T12:27:07.407Z,99684.05
2017-12-06T12:29:34.903Z,99680.78
2017-12-06T12:32:02.400Z,99678.77
2017-12-06T12:34:29.900Z,99682.96
2017-12-06T12:36:57.397Z,99680.28
2017-12-06T12:39:24.893Z,99672.13
2017-12-06T12:41:52.369Z,99677.72
2017-12-06T12:44:19.860Z,99671.92
2017-12-06T12:46:47.359Z,99665.69
2017-12-06T12:49:14.881Z,99658.08
2017-12-06T12:51:42.365Z,99659.20
2017-12-06T12:54:09.891Z,99665.20
2017-12-06T12:56:37.369Z,99658.77
2017-12-06T12:59:04.857Z,99657.32
2017-12-06T13:01:32.345Z,99656.84
2017-12-06T13:04:00.009Z,99657.52
2017-12-06T13:06:27.516Z,99646.83
2017-12-06T13:08:55.013Z,99644.20
2017-12-06T13:11:23.125Z,99641.73
2017-12-06T13:13:50.625Z,99643.97
2017-12-06T13:16:18.130Z,99640.91
2017-12-06T13:18:45.615Z,99642.34
2017-12-06T13:21:13.097Z,99636.81
2017-12-06T13:23:40.597Z,99630.10
2017-12-06T13:26:08.113Z,99631.67
2017-12-06T13:28:35.723Z,99629.03
2017-12-06T13:31:03.257Z,99626.88
2017-12-06T13:33:30.736Z,99621.88
2017-12-06T13:35:58.224Z,99621.77
2017-12-06T13:38:25.709Z,99616.09
2017-12-06T13:40:53.225Z,99611.90
2017-12-06T13:43:20.701Z,99611.03
2017-12-06T13:45:48.183Z,99605.25
2017-12-06T13:48:15.682Z,99614.70
2017-12-06T13:50:43.198Z,99609.66
2017-12-06T13:53:10.709Z,99605.39
2017-12-06T13:55:38.210Z,99615.36
2017-12-06T13:58:05.704Z,99612.69
2017-12-06T14:00:33.381Z,99607.90
2017-12-06T14:03:00.917Z,99607.38
2017-12-06T14:05:28.413Z,99608.22
2017-12-06T14:07:55.989Z,99607.34
2017-12-06T14:10:23.548Z,99612.84
2017-12-06T14:12:51.037Z,99608.81
2017-12-06T14:15:18.524Z,99608.62
2017-12-06T14:17:46.027Z,99606.90
2017-12-06T14:20:13.516Z,99603.86
2017-12-06T14:22:41.033Z,99609.89
2017-12-06T14:25:08.513Z,99612.91
2017-12-06T14:27:36.002Z,99612.45
2017-12-06T14:30:03.498Z,99608.61
2017-12-06T14:32:30.980Z,99607.44
2017-12-06T14:34:58.509Z,99607.24
2017-12-06T14:37:26.000Z,99610.92
2017-12-06T14:39:53.613Z,99609.31
2017-12-06T14:42:21.157Z,99615.13
2017-12-06T14:44:48.644Z,99607.72
2017-12-06T14:47:16.151Z,99609.23
2017-12-06T14:49:43.679Z,99612.24
2017-12-06T14:52:11.204Z,99612.01
2017-12-06T14:54:38.701Z,99615.95
2017-12-06T14:57:06.222Z,99611.83
2017-12-06T14:59:33.721Z,99612.36
2017-12-06T15:02:01.210Z,99613.11
2017-12-06T15:04:28.693Z,99613.91
2017-12-06T15:06:56.193Z,99618.44
2017-12-06T15:09:23.700Z,99610.22
2017-12-06T15:11:52.290Z,99610.99
2017-12-06T15:14:19.785Z,99604.86
2017-12-06T15:16:47.277Z,99611.91
2017-12-06T15:19:14.770Z,99609.78
2017-12-06T15:21:42.360Z,99606.44
2017-12-06T15:24:09.865Z,99603.13
2017-12-06T15:26:37.358Z,99605.00
2017-12-06T15:29:04.838Z,99600.41
2017-12-06T15:31:32.371Z,99609.11
2017-12-06T15:33:59.860Z,99604.20
2017-12-06T15:36:27.378Z,99598.24
2017-12-06T15:38:54.872Z,99596.73
2017-12-06T15:41:22.401Z,99595.17
2017-12-06T15:43:49.988Z,99599.06
2017-12-06T15:46:17.492Z,99597.81
2017-12-06T15:48:45.134Z,99594.14
2017-12-06T15:51:12.636Z,99600.47
2017-12-06T15:53:40.230Z,99600.77
2017-12-06T15:56:07.719Z,99600.48
2017-12-06T15:58:35.199Z,99594.58
2017-12-06T16:01:02.688Z,99585.52
2017-12-06T16:03:30.173Z,99583.98
2017-12-06T16:05:57.685Z,99590.15
2017-12-06T16:08:25.182Z,99580.52
2017-12-06T16:10:52.660Z,99588.19
2017-12-06T16:13:20.191Z,99579.81
2017-12-06T16:15:47.897Z,99583.50
2017-12-06T16:18:15.419Z,99580.97
2017-12-06T16:20:42.936Z,99577.66
2017-12-06T16:23:10.465Z,99577.23
2017-12-06T16:25:38.000Z,99580.75
2017-12-06T16:28:05.536Z,99576.06
2017-12-06T16:30:33.038Z,99569.00
2017-12-06T16:33:00.589Z,99567.20
2017-12-06T16:35:39.970Z,99566.08
2017-12-06T16:38:07.511Z,99565.27
2017-12-06T16:40:35.018Z,99557.79
2017-12-06T16:43:02.511Z,99560.80
2017-12-06T16:45:31.339Z,99554.98
2017-12-06T16:47:58.852Z,99556.27
2017-12-06T16:50:26.359Z,99552.84
2017-12-06T16:52:53.853Z,99558.42
2017-12-06T16:55:21.352Z,99555.26
2017-12-06T16:57:48.842Z,99557.22
2017-12-06T17:00:16.335Z,99550.32
2017-12-06T17:02:43.845Z,99554.34
2017-12-06T17:05:11.342Z,99550.75
2017-12-06T17:07:38.945Z,99555.13
2017-12-06T17:10:06.462Z,99554.21
2017-12-06T17:12:34.009Z,99555.95
2017-12-06T17:15:01.546Z,99558.08
2017-12-06T17:17:29.156Z,99548.17
2017-12-06T17:19:56.697Z,99553.86
2017-12-06T17:22:24.273Z,99552.34
2017-12-06T17:24:51.758Z,99547.45
2017-12-06T17:27:19.265Z,99549.77
2017-12-06T17:29:58.825Z,99551.20
2017-12-06T17:32:26.336Z,99549.59
2017-12-06T17:34:53.829Z,99550.91
2017-12-06T17:37:21.345Z,99547.48
2017-12-06T17:39:48.838Z,99547.62
2017-12-06T17:42:16.376Z,99547.84
2017-12-06T17:44:43.870Z,99547.05
2017-12-06T17:47:11.362Z,99541.77
2017-12-06T17:49:38.846Z,99539.94
2017-12-06T17:52:06.346Z,99539.67
2017-12-06T17:54:33.885Z,99544.72
2017-12-06T17:57:01.375Z,99530.98
2017-12-06T17:59:28.895Z,99533.26
2017-12-06T18:01:56.392Z,99532.96
2017-12-06T18:04:23.909Z,99537.44
2017-12-06T18:06:51.417Z,99530.09
2017-12-06T18:09:18.933Z,99527.65
2017-12-06T18:11:46.444Z,99523.96
2017-12-06T18:14:14.046Z,99524.12
2017-12-06T18:16:41.558Z,99520.95
2017-12-06T18:19:09.089Z,99516.41
2017-12-06T18:21:36.612Z,99516.09
2017-12-06T18:24:04.133Z,99520.30
2017-12-06T18:26:31.667Z,99521.27
2017-12-06T18:28:59.174Z,99518.90
2017-12-06T18:31:26.710Z,99516.84
2017-12-06T18:33:54.212Z,99518.14
2017-12-06T18:36:21.742Z,99521.52
2017-12-06T18:38:49.251Z,99517.58
2017-12-06T18:41:16.859Z,99520.30
2017-12-06T18:43:44.346Z,99515.95
2017-12-06T18:46:11.848Z,99519.52
2017-12-06T18:48:39.365Z,99511.22
2017-12-06T18:51:06.862Z,99507.59
2017-12-06T18:53:34.370Z,99509.07
2017-12-06T18:56:01.891Z,99506.59
2017-12-06T18:58:29.390Z,99506.55
2017-12-06T19:00:56.876Z,99505.92
2017-12-06T19:03:24.390Z,99505.78
2017-12-06T19:05:51.880Z,99502.33
2017-12-06T19:08:19.382Z,99502.34
2017-12-06T19:10:46.877Z,99493.09
2017-12-06T19:13:14.387Z,99498.82
2017-12-06T19:15:41.939Z,99502.33
2017-12-06T19:18:09.451Z,99501.23
2017-12-06T19:20:36.965Z,99494.65
2017-12-06T19:23:04.483Z,99495.00
2017-12-06T19:25:32.111Z,99490.37
2017-12-06T19:27:59.627Z,99486.92
2017-12-06T19:30:27.141Z,99488.41
2017-12-06T19:32:54.655Z,99485.52
2017-12-06T19:35:22.169Z,99486.89
2017-12-06T19:37:49.694Z,99476.80
2017-12-06T19:40:17.200Z,99475.30
2017-12-06T19:42:44.701Z,99471.72
2017-12-06T19:45:12.271Z,99470.87
2017-12-06T19:47:39.794Z,99476.52
2017-12-06T19:50:07.319Z,99472.26
2017-12-06T19:52:34.811Z,99473.73
2017-12-06T19:55:02.337Z,99469.64
2017-12-06T19:57:29.866Z,99464.98
2017-12-06T19:59:57.367Z,99465.21
2017-12-06T20:02:24.928Z,99470.44
2017-12-06T20:04:52.467Z,99463.11
2017-12-06T20:07:19.960Z,99464.94
2017-12-06T20:09:47.729Z,99457.98
2017-12-06T20:12:15.309Z,99451.98
2017-12-06T20:14:42.862Z,99449.09
2017-12-06T20:17:10.425Z,99443.72
2017-12-06T20:19:37.960Z,99449.77
2017-12-06T20:22:05.457Z,99449.79
2017-12-06T20:24:33.008Z,99448.24
2017-12-06T20:27:00.527Z,99456.80
2017-12-06T20:29:28.102Z,99452.35
2017-12-06T20:31:55.819Z,99443.70
2017-12-06T20:34:23.333Z,99445.02
2017-12-06T20:36:51.020Z,99442.47
2017-12-06T20:39:18.525Z,99439.69
2017-12-06T20:41:46.050Z,99438.81
2017-12-06T20:44:13.561Z,99434.08
2017-12-06T20:46:41.249Z,99431.56
2017-12-06T20:49:08.817Z,99425.72
2017-12-06T20:51:37.083Z,99428.23
2017-12-06T20:54:04.700Z,99428.78
2017-12-06T20:56:32.240Z,99426.42
2017-12-06T20:59:00.060Z,99423.03
2017-12-06T21:01:27.611Z,99425.64
2017-12-06T21:03:55.097Z,99422.48
2017-12-06T21:06:22.842Z,99420.66
2017-12-06T21:08:50.479Z,99421.35
2017-12-06T21:11:17.997Z,99419.80
2017-12-06T21:13:45.516Z,99414.36
2017-12-06T21:16:13.024Z,99414.85
2017-12-06T21:18:40.507Z,99410.58
2017-12-06T21:21:08.003Z,99410.73
2017-12-06T21:23:35.570Z,99401.66
2017-12-06T21:26:03.086Z,99397.64
2017-12-06T21:28:30.627Z,99397.51
2017-12-06T21:31:00.137Z,99390.63
2017-12-06T21:33:27.781Z,99391.11
2017-12-06T21:35:55.294Z,99392.12
2017-12-06T21:38:22.922Z,99385.27
2017-12-06T21:40:50.434Z,99385.96
2017-12-06T21:43:17.934Z,99388.70
2017-12-06T21:45:45.460Z,99386.14
2017-12-06T21:48:12.983Z,99378.64
2017-12-06T21:50:40.520Z,99379.97
2017-12-06T21:53:08.216Z,99383.47
2017-12-06T21:55:35.743Z,99378.90
2017-12-06T21:58:03.261Z,99376.59
2017-12-06T22:00:30.861Z,99371.23
2017-12-06T22:02:58.370Z,99369.06
2017-12-06T22:05:26.013Z,99373.28
2017-12-06T22:07:53.603Z,99368.64
2017-12-06T22:10:21.143Z,99367.72
2017-12-06T22:12:48.793Z,99361.41
2017-12-06T22:15:16.391Z,99361.55
2017-12-06T22:17:43.910Z,99358.45
2017-12-06T22:20:11.412Z,99357.27
2017-12-06T22:22:38.922Z,99357.45
2017-12-06T22:25:06.434Z,99348.94
2017-12-06T22:27:33.922Z,99346.27
2017-12-06T22:30:01.410Z,99342.39
2017-12-06T22:32:28.925Z,99338.02
2017-12-06T22:34:56.425Z,99337.82
2017-12-06T22:37:23.922Z,99335.20
2017-12-06T22:39:51.410Z,99328.38
2017-12-06T22:42:18.984Z,99337.37
2017-12-06T22:44:58.490Z,99329.97
2017-12-06T22:47:26.172Z,99318.56
2017-12-06T22:49:53.838Z,99322.00
2017-12-06T22:52:21.415Z,99321.36
2017-12-06T22:54:48.933Z,99318.70
2017-12-06T22:57:16.434Z,99313.27
2017-12-06T22:59:43.918Z,99307.05
2017-12-06T23:02:11.473Z,99305.05
2017-12-06T23:04:39.011Z,99301.45
2017-12-06T23:07:07.382Z,99296.43
2017-12-06T23:09:34.899Z,99295.64
2017-12-06T23:12:02.401Z,99289.39
2017-12-06T23:14:29.897Z,99292.05
2017-12-06T23:16:57.414Z,99281.05
2017-12-06T23:19:24.905Z,99276.55
2017-12-06T23:21:52.433Z,99269.27
2017-12-06T23:24:19.928Z,99262.11
2017-12-06T23:26:47.436Z,99263.75
2017-12-06T23:29:15.057Z,99260.16
2017-12-06T23:31:42.557Z,99251.83
2017-12-06T23:34:10.068Z,99253.81
2017-12-06T23:36:37.552Z,99250.59
2017-12-06T23:39:05.084Z,99244.94
2017-12-06T23:41:32.601Z,99243.55
2017-12-06T23:44:00.243Z,99233.86
2017-12-06T23:46:27.737Z,99230.07
2017-12-06T23:48:55.227Z,99223.16
2017-12-06T23:51:22.755Z,99224.64
2017-12-06T23:53:50.258Z,99215.39
2017-12-06T23:56:17.793Z,99222.28
2017-12-06T23:58:45.299Z,99217.00
